Terminal Aerodrome Forecast
Issued by NWS Albany, NY

Home | Current Version | Previous Version | Text Only | Print | Product List | Glossary On
Versions: 1 2 3 4 5 6 7 8 9 10 11 12 13 14
527
FTUS41 KALY 172114 AAA
TAFALB
TAF AMD
KALB 172114Z 1721/1818 VRB03KT 4SM -FZRAPL BR SCT025 OVC040
      TEMPO 1721/1724 2SM -FZRAPL BR BKN025 OVC040
     FM180000 13006KT 3SM -RAPL BR OVC010
     FM181200 05003KT 4SM BR OVC025=

USA.gov is the U.S. government's official web portal to all federal, state and local government web resources and services.